Time;durP1;ratioP1;P1;durP2;ratioP2;P2;SDS_P1;SDS_P2;PMS_P1;PMS_P2;Temp;Humidity;BMP_temperature;BMP_pressure;BME280_temperature;BME280_humidity;BME280_pressure;Samples;Min_cycle;Max_cycle;Signal;HPM_P1;HPM_P2
2020/12/11 00:01:31;;;;;;;2.92;2.63;;;15.00;53.10;;;;;;5095657;28;20028;-59
2020/12/11 00:03:56;;;;;;;5.00;3.60;;;15.00;53.10;;;;;;5095711;28;20374;-59
2020/12/11 00:06:23;;;;;;;3.30;3.00;;;15.00;53.10;;;;;;5095930;28;20020;-59
2020/12/11 00:08:49;;;;;;;7.57;3.35;;;15.00;53.10;;;;;;5095080;28;20020;-59
2020/12/11 00:11:15;;;;;;;3.63;3.33;;;15.00;53.20;;;;;;5095498;28;20130;-59
2020/12/11 00:13:40;;;;;;;6.15;3.47;;;15.00;53.20;;;;;;5095501;28;20498;-59
2020/12/11 00:16:06;;;;;;;4.82;3.35;;;15.00;53.30;;;;;;5095352;28;20021;-59
2020/12/11 00:18:32;;;;;;;6.57;3.60;;;14.90;53.20;;;;;;5095038;28;20419;-59
2020/12/11 00:21:01;;;;;;;6.57;3.20;;;14.90;53.20;;;;;;5095025;28;20020;-59
2020/12/11 00:23:27;;;;;;;4.15;3.65;;;14.90;53.30;;;;;;5095525;28;20129;-59
2020/12/11 00:25:58;;;;;;;4.65;3.13;;;14.90;53.30;;;;;;5095342;28;20040;-60
2020/12/11 00:28:27;;;;;;;4.85;3.45;;;14.90;53.30;;;;;;5095434;28;20103;-59
2020/12/11 00:30:57;;;;;;;5.15;3.50;;;14.90;53.30;;;;;;5095430;28;20470;-59
2020/12/11 00:33:24;;;;;;;4.80;2.58;;;14.90;53.40;;;;;;5094678;28;20035;-59
2020/12/11 00:35:50;;;;;;;5.53;3.25;;;14.90;53.40;;;;;;5094615;28;20027;-59
2020/12/11 00:38:17;;;;;;;5.55;3.40;;;14.80;53.30;;;;;;5094457;28;20480;-59
2020/12/11 00:40:43;;;;;;;4.45;3.22;;;14.80;53.40;;;;;;5094458;28;20527;-59
2020/12/11 00:43:08;;;;;;;4.13;3.25;;;14.80;53.40;;;;;;5078968;27;20044;-59
2020/12/11 00:45:34;;;;;;;4.72;3.75;;;14.80;53.50;;;;;;5074374;28;20435;-59
2020/12/11 00:48:00;;;;;;;5.85;3.28;;;14.80;53.50;;;;;;5074427;28;20071;-59
2020/12/11 00:50:25;;;;;;;3.50;3.20;;;14.80;54.10;;;;;;5074105;28;20278;-59
2020/12/11 00:52:51;;;;;;;4.85;3.75;;;14.80;53.50;;;;;;5074416;28;20029;-59
2020/12/11 00:55:17;;;;;;;4.18;3.40;;;14.70;53.50;;;;;;5074435;28;20374;-59
2020/12/11 00:57:44;;;;;;;5.88;3.50;;;14.70;53.50;;;;;;5074258;28;20020;-58
2020/12/11 01:00:17;;;;;;;4.47;3.20;;;14.70;53.50;;;;;;5073885;28;20017;-59
2020/12/11 01:02:43;;;;;;;4.13;3.42;;;14.70;53.50;;;;;;5073613;28;20489;-59
2020/12/11 01:05:09;;;;;;;5.75;3.55;;;14.70;53.50;;;;;;5073920;28;20032;-59
2020/12/11 01:07:35;;;;;;;3.47;2.90;;;14.70;53.50;;;;;;5074047;28;20387;-59
2020/12/11 01:10:01;;;;;;;6.68;3.47;;;14.70;53.60;;;;;;5074028;28;20021;-59
2020/12/11 01:12:27;;;;;;;7.18;3.47;;;14.70;53.60;;;;;;5073905;28;20106;-59
2020/12/11 01:14:53;;;;;;;4.25;3.60;;;14.70;53.60;;;;;;5073867;28;20016;-58
2020/12/11 01:17:19;;;;;;;5.35;3.60;;;14.60;53.80;;;;;;5074080;28;20025;-58
2020/12/11 01:19:44;;;;;;;5.25;3.40;;;14.60;53.60;;;;;;5073730;28;20028;-58
2020/12/11 01:22:12;;;;;;;5.20;3.67;;;14.60;53.50;;;;;;5073585;28;20470;-58
2020/12/11 01:24:38;;;;;;;5.95;3.35;;;14.60;53.50;;;;;;5073370;28;20083;-57
2020/12/11 01:27:04;;;;;;;6.07;4.20;;;14.60;53.50;;;;;;5073471;28;20033;-58
2020/12/11 01:29:29;;;;;;;4.28;3.47;;;14.60;53.50;;;;;;5073557;28;20017;-58
2020/12/11 01:31:59;;;;;;;5.72;3.67;;;14.60;53.60;;;;;;5073122;28;20021;-58
2020/12/11 01:34:26;;;;;;;3.37;3.03;;;14.60;53.60;;;;;;5073472;28;20103;-58
2020/12/11 01:36:51;;;;;;;6.18;3.28;;;14.60;53.60;;;;;;5073464;28;20024;-58
2020/12/11 01:39:17;;;;;;;6.35;3.78;;;14.50;53.60;;;;;;5073322;28;20497;-60
2020/12/11 01:41:43;;;;;;;5.38;3.85;;;14.50;53.60;;;;;;5078495;27;20071;-58
2020/12/11 01:44:10;;;;;;;4.40;3.15;;;14.50;53.70;;;;;;5093481;28;20024;-58
2020/12/11 01:46:40;;;;;;;5.18;3.05;;;14.50;53.70;;;;;;5093421;28;20446;-57
2020/12/11 01:49:08;;;;;;;5.70;4.03;;;14.50;53.70;;;;;;5093587;28;20053;-58
2020/12/11 01:51:35;;;;;;;5.30;3.53;;;14.50;53.70;;;;;;5093475;28;20047;-58
2020/12/11 01:54:00;;;;;;;4.10;3.25;;;14.50;53.80;;;;;;5093654;28;20401;-58
2020/12/11 01:56:36;;;;;;;5.07;3.45;;;14.50;53.80;;;;;;5093387;28;20038;-58
2020/12/11 01:59:04;;;;;;;4.30;3.63;;;14.50;53.80;;;;;;5093141;28;20032;-58
2020/12/11 02:01:35;;;;;;;5.28;3.97;;;14.40;53.80;;;;;;5093329;28;20012;-58
2020/12/11 02:04:01;;;;;;;4.28;3.53;;;14.40;53.80;;;;;;5092785;28;20020;-57
2020/12/11 02:06:27;;;;;;;4.25;3.38;;;14.40;53.90;;;;;;5093433;28;20039;-57
2020/12/11 02:08:56;;;;;;;3.80;3.10;;;14.40;53.80;;;;;;5093149;28;20024;-58
2020/12/11 02:11:25;;;;;;;4.93;3.40;;;14.40;53.80;;;;;;5093287;28;20020;-57
2020/12/11 02:13:51;;;;;;;3.97;3.00;;;14.40;53.80;;;;;;5092865;28;20024;-58
2020/12/11 02:16:21;;;;;;;4.00;3.15;;;14.40;53.90;;;;;;5092842;28;20470;-58
2020/12/11 02:18:48;;;;;;;2.83;2.53;;;14.40;53.90;;;;;;5093030;28;20397;-58
2020/12/11 02:21:14;;;;;;;5.45;3.78;;;14.30;53.80;;;;;;5092766;28;20028;-57
2020/12/11 02:23:42;;;;;;;3.92;3.28;;;14.30;53.80;;;;;;5092836;28;20078;-58
2020/12/11 02:26:07;;;;;;;5.20;3.78;;;14.30;53.90;;;;;;5092723;28;20039;-58
2020/12/11 02:28:34;;;;;;;3.40;2.88;;;14.30;53.80;;;;;;5092738;28;20386;-57
2020/12/11 02:31:00;;;;;;;4.95;3.33;;;14.30;53.90;;;;;;5092758;28;20032;-58
2020/12/11 02:33:26;;;;;;;3.50;3.15;;;14.30;53.90;;;;;;5092740;28;20093;-59
2020/12/11 02:35:52;;;;;;;3.83;3.08;;;14.30;53.90;;;;;;5092883;28;20024;-59
2020/12/11 02:38:18;;;;;;;4.32;3.35;;;14.30;54.00;;;;;;5092934;28;20166;-58
2020/12/11 02:40:52;;;;;;;4.20;3.40;;;14.20;53.90;;;;;;5092527;28;20028;-58
2020/12/11 02:43:18;;;;;;;4.20;3.30;;;14.20;53.90;;;;;;5077361;28;20120;-59
2020/12/11 02:45:49;;;;;;;4.18;3.13;;;14.20;53.90;;;;;;5072844;28;20025;-58
2020/12/11 02:48:15;;;;;;;3.88;3.20;;;14.20;53.90;;;;;;5072300;28;20525;-58
2020/12/11 02:50:41;;;;;;;4.57;3.50;;;14.20;53.90;;;;;;5072528;28;20482;-58
2020/12/11 02:53:07;;;;;;;3.40;3.10;;;14.20;54.00;;;;;;5072723;28;20059;-58
2020/12/11 02:55:34;;;;;;;4.07;3.65;;;14.20;53.90;;;;;;5072184;28;20020;-59
2020/12/11 02:58:01;;;;;;;4.53;2.90;;;14.20;53.90;;;;;;5073109;28;20027;-57
2020/12/11 03:00:28;;;;;;;3.75;3.00;;;14.20;54.00;;;;;;5072742;28;20379;-58
2020/12/11 03:02:54;;;;;;;3.53;3.22;;;14.10;54.00;;;;;;5072734;28;20071;-58
2020/12/11 03:05:19;;;;;;;3.90;3.33;;;14.10;54.00;;;;;;5072578;28;20048;-58
2020/12/11 03:07:45;;;;;;;4.80;3.28;;;14.10;54.00;;;;;;5072225;28;20130;-59
2020/12/11 03:10:11;;;;;;;4.65;3.45;;;14.10;54.10;;;;;;5072434;28;20021;-62
2020/12/11 03:12:37;;;;;;;3.83;3.42;;;14.10;54.00;;;;;;5072689;28;20033;-60
2020/12/11 03:15:03;;;;;;;3.53;3.22;;;14.10;54.00;;;;;;5054517;28;20455;-58
2020/12/11 03:17:29;;;;;;;3.55;3.22;;;14.10;54.00;;;;;;5072500;28;20096;-58
2020/12/11 03:19:56;;;;;;;3.92;3.40;;;14.10;54.00;;;;;;5072124;28;20443;-58
2020/12/11 03:22:22;;;;;;;5.03;3.65;;;14.10;54.00;;;;;;5072044;28;20098;-58
2020/12/11 03:24:48;;;;;;;4.38;2.97;;;14.00;53.90;;;;;;5072785;28;20028;-58
2020/12/11 03:27:15;;;;;;;3.60;3.30;;;14.10;54.00;;;;;;5075189;28;20032;-59
2020/12/11 03:29:41;;;;;;;4.45;3.03;;;14.00;53.90;;;;;;5075818;28;20031;-58
2020/12/11 03:32:07;;;;;;;5.55;3.80;;;14.00;53.90;;;;;;5075617;28;20024;-58
2020/12/11 03:34:33;;;;;;;4.47;3.13;;;14.00;54.00;;;;;;5075895;28;20071;-58
2020/12/11 03:36:59;;;;;;;4.40;3.33;;;14.00;54.00;;;;;;5075699;28;20020;-55
2020/12/11 03:39:25;;;;;;;4.53;3.25;;;14.00;54.00;;;;;;5076153;28;20036;-58
2020/12/11 03:41:52;;;;;;;4.05;3.20;;;14.00;54.00;;;;;;5077381;27;20032;-58
2020/12/11 03:44:19;;;;;;;6.03;3.78;;;13.90;54.00;;;;;;5075510;28;20071;-58
2020/12/11 03:46:45;;;;;;;6.43;3.60;;;13.90;53.90;;;;;;5075422;28;20479;-58
2020/12/11 03:49:11;;;;;;;5.40;3.45;;;13.90;53.90;;;;;;5075551;28;20079;-58
2020/12/11 03:51:37;;;;;;;5.10;3.30;;;13.90;54.00;;;;;;5075553;28;20529;-58
2020/12/11 03:54:03;;;;;;;5.00;3.72;;;13.90;54.00;;;;;;5075377;28;20486;-58
2020/12/11 03:56:29;;;;;;;3.72;3.15;;;13.90;53.90;;;;;;5075629;28;20021;-58
2020/12/11 03:58:54;;;;;;;4.75;3.42;;;14.00;54.10;;;;;;5075160;28;20493;-58
2020/12/11 04:01:20;;;;;;;4.43;3.53;;;13.90;54.00;;;;;;5075414;28;20021;-58
2020/12/11 04:03:47;;;;;;;3.58;3.20;;;13.90;54.10;;;;;;5075492;28;20104;-57
2020/12/11 04:06:15;;;;;;;3.38;2.85;;;13.90;54.10;;;;;;5074887;28;20474;-58
2020/12/11 04:08:42;;;;;;;5.32;3.45;;;13.90;54.30;;;;;;5074830;28;20028;-58
2020/12/11 04:11:10;;;;;;;4.20;3.53;;;13.90;54.30;;;;;;5074856;28;20048;-58
2020/12/11 04:13:36;;;;;;;4.40;3.55;;;13.90;54.30;;;;;;5075055;28;20063;-58
2020/12/11 04:16:03;;;;;;;3.63;3.22;;;13.90;54.30;;;;;;5075217;28;20013;-58
2020/12/11 04:18:28;;;;;;;3.80;3.10;;;13.90;54.40;;;;;;5074583;28;20355;-58
2020/12/11 04:20:58;;;;;;;4.47;3.67;;;13.90;54.30;;;;;;5075063;28;20025;-58
2020/12/11 04:23:30;;;;;;;3.90;3.50;;;13.90;54.10;;;;;;5074651;28;20022;-58
2020/12/11 04:25:56;;;;;;;3.97;3.05;;;13.90;54.20;;;;;;5074686;28;20384;-58
2020/12/11 04:28:21;;;;;;;3.97;3.00;;;13.90;54.30;;;;;;5074512;28;20017;-58
2020/12/11 04:30:47;;;;;;;5.07;3.20;;;13.90;54.20;;;;;;5074968;28;20028;-58
2020/12/11 04:33:13;;;;;;;5.07;3.38;;;13.90;54.10;;;;;;5074692;28;20024;-58
2020/12/11 04:35:38;;;;;;;3.85;2.67;;;13.90;54.10;;;;;;5074832;28;20062;-58
2020/12/11 04:38:04;;;;;;;3.42;2.85;;;13.90;54.30;;;;;;5073753;28;20107;-58
2020/12/11 04:40:30;;;;;;;4.82;3.10;;;14.00;54.20;;;;;;5056588;28;20083;-58
2020/12/11 04:42:56;;;;;;;2.85;2.58;;;14.00;54.10;;;;;;5075883;27;20052;-58
2020/12/11 04:45:23;;;;;;;3.60;3.13;;;14.00;54.10;;;;;;5074565;28;20029;-60
2020/12/11 04:47:50;;;;;;;4.20;2.95;;;14.00;54.10;;;;;;5074377;28;20095;-59
2020/12/11 04:50:17;;;;;;;3.40;2.67;;;14.00;54.70;;;;;;5074407;28;20471;-59
2020/12/11 04:52:47;;;;;;;3.92;3.08;;;14.00;54.00;;;;;;5074345;28;20493;-59
2020/12/11 04:55:25;;;;;;;4.63;3.05;;;14.00;53.90;;;;;;5074156;28;20107;-59
2020/12/11 04:57:52;;;;;;;3.90;3.17;;;14.00;53.90;;;;;;5074240;28;20079;-59
2020/12/11 05:00:27;;;;;;;3.25;2.60;;;13.90;54.00;;;;;;5074009;28;20020;-60
2020/12/11 05:02:54;;;;;;;3.70;3.20;;;14.00;53.80;;;;;;5074236;28;20035;-59
2020/12/11 05:05:20;;;;;;;4.05;3.17;;;14.00;54.00;;;;;;5073872;28;20694;-59
2020/12/11 05:07:45;;;;;;;3.20;2.83;;;14.00;53.90;;;;;;5073731;28;20259;-59
2020/12/11 05:10:13;;;;;;;3.60;2.72;;;14.00;54.00;;;;;;5073999;28;20017;-59
2020/12/11 05:12:38;;;;;;;3.63;2.90;;;14.00;53.80;;;;;;5074011;28;20020;-59
2020/12/11 05:15:07;;;;;;;6.07;3.13;;;14.00;53.90;;;;;;5074124;28;20466;-59
2020/12/11 05:17:34;;;;;;;6.47;3.10;;;14.00;53.80;;;;;;5073640;28;20049;-59
2020/12/11 05:20:01;;;;;;;2.90;2.60;;;14.00;53.70;;;;;;5074012;28;20025;-59
2020/12/11 05:22:34;;;;;;;4.22;3.58;;;14.00;53.80;;;;;;5073983;28;20020;-59
2020/12/11 05:25:01;;;;;;;3.15;2.72;;;14.00;53.80;;;;;;5073950;28;20079;-59
2020/12/11 05:27:38;;;;;;;3.63;3.10;;;13.90;53.90;;;;;;5073609;28;20037;-59
2020/12/11 05:30:07;;;;;;;5.95;3.20;;;13.90;54.00;;;;;;5073610;28;20027;-60
2020/12/11 05:32:44;;;;;;;2.97;2.67;;;13.90;54.00;;;;;;5055362;28;20479;-59
2020/12/11 05:35:21;;;;;;;3.38;2.70;;;13.90;54.10;;;;;;5056002;28;20027;-59
2020/12/11 05:37:57;;;;;;;2.92;2.72;;;13.90;54.00;;;;;;5055687;28;20479;-59
2020/12/11 05:40:34;;;;;;;4.07;2.88;;;13.90;54.00;;;;;;5073956;28;20025;-59
2020/12/11 05:43:21;;;;;;;3.35;2.78;;;13.90;54.00;;;;;;5086185;27;20066;-59
2020/12/11 05:45:57;;;;;;;3.50;3.00;;;13.90;54.30;;;;;;5093443;28;20121;-59
2020/12/11 05:48:36;;;;;;;3.17;2.42;;;13.90;55.20;;;;;;5093552;28;20056;-58
2020/12/11 05:51:15;;;;;;;2.72;2.50;;;13.90;54.70;;;;;;5092860;28;20074;-58
2020/12/11 05:53:41;;;;;;;3.25;2.95;;;13.90;54.50;;;;;;5093527;28;20028;-58
2020/12/11 05:56:07;;;;;;;2.78;2.33;;;13.90;54.70;;;;;;5093413;28;20513;-58
2020/12/11 05:58:34;;;;;;;3.47;3.05;;;13.90;54.80;;;;;;5093715;28;20032;-58
2020/12/11 06:00:59;;;;;;;3.13;2.60;;;13.90;54.70;;;;;;5093636;28;20024;-58
2020/12/11 06:03:26;;;;;;;3.55;2.60;;;13.90;54.70;;;;;;5093665;28;20461;-58
2020/12/11 06:05:56;;;;;;;4.63;2.75;;;13.90;54.90;;;;;;5093208;28;20039;-58
2020/12/11 06:08:24;;;;;;;3.65;2.92;;;13.90;55.30;;;;;;5092790;28;20034;-58
2020/12/11 06:10:50;;;;;;;2.67;2.40;;;14.00;55.30;;;;;;5093236;28;20020;-59
2020/12/11 06:13:32;;;;;;;3.92;2.63;;;14.00;55.20;;;;;;5093268;28;20024;-59
2020/12/11 06:16:01;;;;;;;2.88;2.47;;;14.10;55.10;;;;;;5093080;28;20028;-58
2020/12/11 06:18:28;;;;;;;2.50;2.20;;;14.20;55.00;;;;;;5093091;28;20020;-58
2020/12/11 06:20:55;;;;;;;2.45;2.25;;;14.30;54.80;;;;;;5093095;28;20446;-58
2020/12/11 06:23:21;;;;;;;2.97;2.30;;;14.40;54.70;;;;;;5093056;28;20104;-58
2020/12/11 06:25:55;;;;;;;3.08;2.25;;;14.40;54.60;;;;;;5092766;28;20574;-58
2020/12/11 06:28:36;;;;;;;2.33;2.13;;;14.50;54.40;;;;;;5092921;28;20054;-58
2020/12/11 06:31:10;;;;;;;2.72;1.98;;;14.50;54.20;;;;;;5092920;28;20023;-58
2020/12/11 06:33:37;;;;;;;2.67;2.15;;;14.60;54.10;;;;;;5092481;28;20080;-57
2020/12/11 06:36:05;;;;;;;2.22;1.90;;;14.70;54.00;;;;;;5092759;28;20020;-58
2020/12/11 06:38:42;;;;;;;1.95;1.65;;;14.80;54.50;;;;;;5092795;28;20027;-58
2020/12/11 06:41:08;;;;;;;2.92;2.20;;;14.80;53.60;;;;;;5092804;28;20111;-58
2020/12/11 06:43:44;;;;;;;2.00;1.80;;;14.90;53.50;;;;;;5093304;28;20139;-59
2020/12/11 06:46:18;;;;;;;2.85;1.95;;;15.00;53.30;;;;;;5092750;28;20432;-59
2020/12/11 06:49:12;;;;;;;2.40;2.20;;;15.00;53.20;;;;;;5092674;28;20081;-58
2020/12/11 06:51:46;;;;;;;2.38;1.80;;;15.10;53.00;;;;;;5092646;28;20370;-58
2020/12/11 06:54:21;;;;;;;2.22;2.00;;;15.20;53.10;;;;;;5092907;28;20424;-59
2020/12/11 06:56:58;;;;;;;1.95;1.75;;;15.30;52.90;;;;;;5092475;28;20482;-57
2020/12/11 06:59:28;;;;;;;2.65;2.20;;;15.30;53.00;;;;;;5092466;28;20107;-55
2020/12/11 07:01:54;;;;;;;4.40;2.30;;;15.40;53.00;;;;;;5093706;28;20163;-59
2020/12/11 07:04:20;;;;;;;2.22;2.03;;;15.50;52.90;;;;;;5096234;28;20027;-59
2020/12/11 07:06:51;;;;;;;4.32;1.90;;;15.50;52.80;;;;;;5095016;28;20040;-59
2020/12/11 07:09:17;;;;;;;3.97;2.13;;;15.60;52.80;;;;;;5094359;28;20424;-60
2020/12/11 07:11:43;;;;;;;1.85;1.70;;;15.60;52.90;;;;;;5095944;28;20027;-60
2020/12/11 07:14:09;;;;;;;3.75;2.35;;;15.70;52.80;;;;;;5096069;28;20016;-60
2020/12/11 07:16:42;;;;;;;7.43;2.17;;;15.70;52.70;;;;;;5096522;28;20024;-60
2020/12/11 07:19:08;;;;;;;7.70;2.13;;;15.80;52.60;;;;;;5095472;28;20028;-60
2020/12/11 07:21:35;;;;;;;3.95;1.65;;;15.80;52.60;;;;;;5094735;28;20020;-60
2020/12/11 07:24:01;;;;;;;5.05;2.20;;;15.80;52.70;;;;;;5094349;28;20066;-59
2020/12/11 07:26:27;;;;;;;2.78;1.73;;;15.80;52.90;;;;;;5094215;28;20024;-59
2020/12/11 07:29:07;;;;;;;2.85;1.88;;;15.70;52.80;;;;;;5095589;28;20100;-59
2020/12/11 07:31:40;;;;;;;3.97;1.73;;;15.70;52.80;;;;;;5095762;28;20028;-59
2020/12/11 07:34:14;;;;;;;4.03;1.92;;;15.70;52.80;;;;;;5077759;28;20500;-58
2020/12/11 07:36:40;;;;;;;3.05;1.73;;;15.80;52.80;;;;;;5096051;28;20028;-59
2020/12/11 07:39:17;;;;;;;3.50;2.22;;;16.00;52.40;;;;;;5096099;28;20024;-58
2020/12/11 07:41:44;;;;;;;2.65;1.65;;;16.00;52.10;;;;;;5077545;28;20036;-58
2020/12/11 07:44:10;;;;;;;2.72;1.70;;;16.10;52.00;;;;;;5095491;27;20043;-58
2020/12/11 07:46:44;;;;;;;4.13;1.65;;;16.20;51.80;;;;;;5095451;28;20470;-58
2020/12/11 07:49:09;;;;;;;3.60;1.73;;;16.40;51.60;;;;;;5095901;28;20028;-56
2020/12/11 07:51:44;;;;;;;4.90;1.83;;;16.40;51.50;;;;;;5095799;28;20043;-56
2020/12/11 07:54:10;;;;;;;2.20;1.58;;;16.40;51.30;;;;;;5095796;28;20047;-59
2020/12/11 07:56:35;;;;;;;1.60;1.50;;;16.50;51.30;;;;;;5095360;28;20051;-59
2020/12/11 07:59:12;;;;;;;6.88;1.60;;;16.50;51.20;;;;;;5095650;28;20016;-59
2020/12/11 08:01:38;;;;;;;2.05;1.40;;;16.50;51.60;;;;;;5095590;28;20066;-58
2020/12/11 08:04:04;;;;;;;4.03;1.98;;;16.60;51.60;;;;;;5095515;28;20052;-56
2020/12/11 08:06:30;;;;;;;3.55;1.40;;;16.60;51.40;;;;;;5095510;28;20497;-58
2020/12/11 08:08:56;;;;;;;2.20;1.65;;;16.60;51.20;;;;;;5095328;28;20072;-59
2020/12/11 08:11:27;;;;;;;2.63;1.75;;;16.60;51.30;;;;;;5095436;28;20601;-58
2020/12/11 08:14:03;;;;;;;2.65;1.52;;;16.60;51.50;;;;;;5094304;28;20020;-58
2020/12/11 08:16:30;;;;;;;2.45;1.70;;;16.60;51.40;;;;;;5095350;28;20097;-58
2020/12/11 08:18:57;;;;;;;3.13;1.50;;;16.70;51.40;;;;;;5095042;28;20553;-58
2020/12/11 08:21:32;;;;;;;3.35;1.73;;;16.70;51.40;;;;;;5094888;28;20020;-58
2020/12/11 08:23:59;;;;;;;2.92;1.30;;;16.70;51.50;;;;;;5095154;28;20436;-58
2020/12/11 08:26:43;;;;;;;3.83;1.80;;;16.70;51.50;;;;;;5094818;28;20027;-59
2020/12/11 08:29:09;;;;;;;1.67;1.50;;;16.70;51.40;;;;;;5094799;28;20028;-58
2020/12/11 08:31:42;;;;;;;4.90;1.40;;;16.70;51.40;;;;;;5095076;28;20016;-59
2020/12/11 08:34:14;;;;;;;2.00;1.40;;;16.70;51.50;;;;;;5095058;28;20410;-59
2020/12/11 08:36:45;;;;;;;1.70;1.55;;;16.70;51.50;;;;;;5086691;28;20058;-58
2020/12/11 08:39:20;;;;;;;4.43;1.70;;;16.70;51.40;;;;;;5094623;28;20031;-59
2020/12/11 08:42:00;;;;;;;2.35;1.60;;;16.70;51.40;;;;;;5094623;28;20470;-58
2020/12/11 08:44:43;;;;;;;2.22;1.45;;;16.70;51.50;;;;;;5075706;28;20044;-59
2020/12/11 08:50:18;;;;;;;1.45;1.30;;;16.80;51.40;;;;;;5042732;28;20122;-57
2020/12/11 08:52:43;;;;;;;1.63;1.35;;;16.80;51.40;;;;;;5074158;28;20484;-58
2020/12/11 08:55:09;;;;;;;1.60;0.90;;;16.90;51.20;;;;;;5074277;28;20036;-58
2020/12/11 08:57:35;;;;;;;2.30;1.50;;;16.90;51.10;;;;;;5074375;28;20020;-58
2020/12/11 09:00:00;;;;;;;1.40;1.30;;;17.00;51.10;;;;;;5074218;28;20021;-59
2020/12/11 09:02:26;;;;;;;1.90;1.33;;;16.90;51.20;;;;;;5074179;28;20063;-59
2020/12/11 09:04:53;;;;;;;1.45;1.30;;;17.00;51.10;;;;;;5073822;28;20102;-59
2020/12/11 09:07:19;;;;;;;3.38;1.40;;;17.00;51.00;;;;;;5074045;28;20445;-57
2020/12/11 09:09:44;;;;;;;2.75;1.50;;;17.00;50.90;;;;;;5073961;28;20031;-57
2020/12/11 09:12:10;;;;;;;1.10;1.08;;;17.00;50.90;;;;;;5073685;28;20382;-59
2020/12/11 09:14:36;;;;;;;1.77;1.23;;;17.10;51.00;;;;;;5074027;28;20103;-59
2020/12/11 09:17:01;;;;;;;3.47;1.40;;;17.00;51.80;;;;;;5073888;28;20417;-59
2020/12/11 09:19:27;;;;;;;2.63;1.63;;;16.90;51.10;;;;;;5073800;28;20062;-59
2020/12/11 09:21:53;;;;;;;2.65;1.70;;;17.00;51.00;;;;;;5073596;28;20427;-58
2020/12/11 09:24:18;;;;;;;2.33;1.55;;;17.00;51.00;;;;;;5073615;28;20047;-59
2020/12/11 09:26:44;;;;;;;3.88;2.28;;;17.00;51.10;;;;;;5073722;28;20028;-59
2020/12/11 09:31:57;;;;;;;3.67;1.40;;;16.80;51.50;;;;;;5073340;28;20098;-58
2020/12/11 09:34:23;;;;;;;2.17;1.38;;;16.70;51.70;;;;;;5073233;28;20016;-56
2020/12/11 09:36:48;;;;;;;2.80;1.30;;;16.70;51.80;;;;;;5073586;28;20067;-56
2020/12/11 09:39:14;;;;;;;1.83;1.17;;;16.80;51.80;;;;;;5073462;28;20489;-58
2020/12/11 09:47:36;;;;;;;1.27;1.17;;;16.80;51.70;;;;;;5093526;28;20036;-58
2020/12/11 09:52:56;;;;;;;1.33;1.20;;;16.90;51.50;;;;;;5093538;28;20094;-57
2020/12/11 09:55:22;;;;;;;1.88;1.10;;;16.90;51.50;;;;;;5093311;28;20052;-58
2020/12/11 09:57:47;;;;;;;1.33;1.17;;;17.00;51.30;;;;;;5093135;28;20052;-58
2020/12/11 10:00:13;;;;;;;1.35;1.00;;;17.10;51.20;;;;;;5093430;28;20020;-58
2020/12/11 10:05:09;;;;;;;1.45;1.10;;;17.10;51.20;;;;;;5093398;28;20584;-58
2020/12/11 10:07:35;;;;;;;1.48;0.95;;;17.20;51.10;;;;;;5093210;28;20083;-57
2020/12/11 10:10:01;;;;;;;2.05;1.10;;;17.20;51.00;;;;;;5092954;28;20441;-58
2020/12/11 10:12:27;;;;;;;1.83;1.20;;;17.20;50.90;;;;;;5092924;28;20024;-57
2020/12/11 10:15:19;;;;;;;2.70;1.08;;;17.20;51.00;;;;;;5093175;28;20103;-57
2020/12/11 10:17:39;;;;;;;2.17;1.20;;;17.30;51.00;;;;;;5092412;28;20062;-57
2020/12/11 10:20:05;;;;;;;1.83;1.38;;;17.30;50.80;;;;;;5093104;28;20056;-58
2020/12/11 10:22:31;;;;;;;1.65;1.13;;;17.30;50.90;;;;;;5093116;28;20095;-58
2020/12/11 10:24:57;;;;;;;1.30;1.00;;;17.30;51.00;;;;;;5093133;28;20036;-57
2020/12/11 10:27:23;;;;;;;1.60;1.13;;;17.30;51.00;;;;;;5092985;28;20432;-59
2020/12/11 10:29:48;;;;;;;1.00;0.95;;;17.30;50.90;;;;;;5092778;28;20020;-58
2020/12/11 10:32:14;;;;;;;1.20;0.90;;;17.30;51.00;;;;;;5092976;28;20428;-59
2020/12/11 10:34:40;;;;;;;2.03;1.05;;;17.30;51.00;;;;;;5092776;28;20028;-57
2020/12/11 10:37:07;;;;;;;1.10;1.00;;;17.30;50.90;;;;;;5092319;28;20099;-58
2020/12/11 10:39:33;;;;;;;2.22;1.20;;;17.40;50.90;;;;;;5093054;28;20043;-58
2020/12/11 10:42:05;;;;;;;1.23;0.90;;;17.40;50.80;;;;;;5092767;28;20462;-58
2020/12/11 10:44:38;;;;;;;1.15;1.00;;;17.40;50.90;;;;;;5093265;28;20044;-58
2020/12/11 10:47:04;;;;;;;0.93;0.90;;;17.40;50.90;;;;;;5092644;28;20036;-59
2020/12/11 10:49:29;;;;;;;1.00;0.90;;;17.40;50.80;;;;;;5092560;28;20028;-59
2020/12/11 10:51:55;;;;;;;1.67;1.25;;;17.40;50.90;;;;;;5092727;28;20529;-58
2020/12/11 10:54:22;;;;;;;1.15;0.98;;;17.30;51.00;;;;;;5092752;28;20462;-59
2020/12/11 10:56:48;;;;;;;1.35;1.20;;;17.40;51.00;;;;;;5092684;28;20075;-59
2020/12/11 10:59:14;;;;;;;1.60;1.20;;;17.40;50.90;;;;;;5092662;28;20449;-58
2020/12/11 11:01:42;;;;;;;1.25;1.10;;;17.40;51.00;;;;;;5092724;28;20020;-58
2020/12/11 11:04:08;;;;;;;1.23;1.13;;;17.40;51.00;;;;;;5092584;28;20480;-58
2020/12/11 11:11:36;;;;;;;1.25;1.00;;;17.50;50.80;;;;;;5092305;28;20105;-58
2020/12/11 11:29:45;;;;;;;1.05;0.80;;;17.60;50.50;;;;;;5092383;28;20055;-58
2020/12/11 11:32:11;;;;;;;1.60;0.90;;;17.60;50.50;;;;;;5092139;28;20056;-58
2020/12/11 11:34:37;;;;;;;1.70;1.00;;;17.60;50.70;;;;;;5092042;28;20054;-58
2020/12/11 11:37:03;;;;;;;1.05;0.75;;;17.50;50.70;;;;;;5092028;28;20081;-58
2020/12/11 11:39:28;;;;;;;3.58;1.10;;;17.50;50.70;;;;;;5092026;28;20024;-58
2020/12/11 11:41:55;;;;;;;1.13;0.77;;;17.60;50.80;;;;;;5091813;28;20580;-59
2020/12/11 11:46:47;;;;;;;2.72;1.30;;;17.40;51.00;;;;;;5093003;28;20434;-59
2020/12/11 11:49:16;;;;;;;3.47;1.00;;;17.40;51.10;;;;;;5095615;28;20020;-59
2020/12/11 11:54:22;;;;;;;;;;;17.30;51.40;;;;;;5096329;28;20065;-59
2020/12/11 11:56:48;;;;;;;0.80;0.80;;;17.20;51.40;;;;;;5095786;28;19904;-60
2020/12/11 11:59:14;;;;;;;0.93;0.90;;;17.20;51.50;;;;;;5095717;28;20013;-59
2020/12/11 12:01:39;;;;;;;0.70;0.70;;;17.10;51.50;;;;;;5095695;28;20081;-59
2020/12/11 12:04:05;;;;;;;1.42;1.10;;;17.10;51.80;;;;;;5095973;28;20020;-59
2020/12/11 12:06:30;;;;;;;1.50;1.23;;;17.10;51.70;;;;;;5095420;28;20059;-59
2020/12/11 12:08:56;;;;;;;1.48;0.93;;;17.10;51.70;;;;;;5095049;28;20020;-59
2020/12/11 12:11:21;;;;;;;1.85;1.40;;;17.20;51.80;;;;;;5095215;28;20028;-59
2020/12/11 12:13:47;;;;;;;1.20;1.05;;;17.10;51.70;;;;;;5095378;28;20024;-59
2020/12/11 12:16:16;;;;;;;1.45;0.98;;;17.10;51.70;;;;;;5095112;28;20024;-60
2020/12/11 12:18:44;;;;;;;1.25;0.90;;;17.10;51.60;;;;;;5095379;28;20066;-60
2020/12/11 12:21:22;;;;;;;0.90;0.73;;;17.10;51.60;;;;;;5095239;28;20042;-59
2020/12/11 12:27:21;;;;;;;0.80;0.75;;;17.10;51.60;;;;;;5095107;28;20131;-59
2020/12/11 12:29:17;;;;;;;5.25;0.93;;;17.20;51.50;;;;;;5095214;28;20136;-60
2020/12/11 12:31:50;;;;;;;2.97;1.00;;;17.20;51.50;;;;;;5076733;28;20016;-60
2020/12/11 12:44:35;;;;;;;0.60;0.60;;;17.20;51.40;;;;;;5095549;27;20150;-59
2020/12/11 12:47:01;;;;;;;1.23;0.90;;;17.30;51.40;;;;;;5094652;28;20056;-59
2020/12/11 12:49:27;;;;;;;1.02;0.90;;;17.30;51.20;;;;;;5094663;28;20095;-58
2020/12/11 12:51:52;;;;;;;0.80;0.80;;;17.30;51.10;;;;;;5094585;28;20031;-57
2020/12/11 12:54:18;;;;;;;1.92;0.70;;;17.30;51.10;;;;;;5094578;28;20147;-55
2020/12/11 12:56:51;;;;;;;1.00;0.90;;;17.30;51.10;;;;;;5094594;28;20031;-58
2020/12/11 13:05:14;;;;;;;1.20;1.10;;;17.50;51.00;;;;;;5094416;28;20539;-58
2020/12/11 13:07:09;;;;;;;0.80;0.75;;;17.50;51.00;;;;;;5084683;28;20043;-59
2020/12/11 13:09:35;;;;;;;0.80;0.80;;;17.50;51.00;;;;;;5094433;28;20116;-60
2020/12/11 13:12:01;;;;;;;1.05;0.88;;;17.50;51.00;;;;;;5093939;28;20016;-57
2020/12/11 13:14:27;;;;;;;1.13;0.95;;;17.40;51.00;;;;;;5094017;28;20024;-55
2020/12/11 13:16:52;;;;;;;1.30;0.80;;;17.40;51.10;;;;;;5093985;28;20035;-59
2020/12/11 13:19:21;;;;;;;1.13;0.80;;;17.40;51.10;;;;;;5075358;28;20110;-59
2020/12/11 13:21:59;;;;;;;3.33;1.00;;;17.30;51.20;;;;;;5093831;28;20103;-59
2020/12/11 13:27:18;;;;;;;1.15;0.98;;;17.30;51.40;;;;;;5094001;28;20039;-59
2020/12/11 13:29:43;;;;;;;1.65;1.13;;;17.20;51.50;;;;;;5094000;28;20433;-59
2020/12/11 13:32:09;;;;;;;1.15;1.05;;;17.10;51.60;;;;;;5094014;28;20102;-60
2020/12/11 13:34:34;;;;;;;0.80;0.80;;;17.10;51.60;;;;;;5093921;28;20458;-59
2020/12/11 13:37:00;;;;;;;1.05;0.80;;;17.10;51.80;;;;;;5093618;28;20023;-59
2020/12/11 13:39:26;;;;;;;0.80;0.80;;;17.00;51.80;;;;;;5093809;28;20051;-58
2020/12/11 13:41:51;;;;;;;1.23;0.82;;;17.10;51.80;;;;;;5093456;28;20115;-58
2020/12/11 13:44:17;;;;;;;0.82;0.68;;;17.10;51.80;;;;;;5094321;27;20052;-59
2020/12/11 13:46:43;;;;;;;0.63;0.60;;;17.10;51.90;;;;;;5093617;28;20024;-59
2020/12/11 13:49:09;;;;;;;0.93;0.82;;;17.10;51.90;;;;;;5093485;28;20034;-58
2020/12/11 13:51:35;;;;;;;0.95;0.77;;;17.10;52.50;;;;;;5093340;28;20028;-58
2020/12/11 13:54:01;;;;;;;1.00;0.80;;;17.10;51.90;;;;;;5093471;28;20042;-59
2020/12/11 13:56:26;;;;;;;1.60;0.75;;;17.10;51.90;;;;;;5093242;28;20016;-57